sensor_id;sensor_type;location;lat;lon;timestamp;pressure;altitude;pressure_sealevel;temperature;humidity
6530;BME280;3298;42.688;23.366;2023-03-14T00:02:21;51721.19;;;-145.06;44.11
6530;BME280;3298;42.688;23.366;2023-03-14T00:04:50;51704.81;;;-145.06;44.30
6530;BME280;3298;42.688;23.366;2023-03-14T00:07:20;51733.47;;;-145.06;44.38
6530;BME280;3298;42.688;23.366;2023-03-14T00:09:46;51717.09;;;-145.06;44.45
6530;BME280;3298;42.688;23.366;2023-03-14T00:12:13;51727.31;;;-145.06;44.59
6530;BME280;3298;42.688;23.366;2023-03-14T00:14:40;51717.09;;;-145.06;44.69
6530;BME280;3298;42.688;23.366;2023-03-14T00:17:08;51751.88;;;-145.06;44.75
6530;BME280;3298;42.688;23.366;2023-03-14T00:19:34;51725.28;;;-145.06;44.75
6530;BME280;3298;42.688;23.366;2023-03-14T00:22:02;51731.41;;;-145.06;44.85
6530;BME280;3298;42.688;23.366;2023-03-14T00:24:29;51704.81;;;-145.06;45.08
6530;BME280;3298;42.688;23.366;2023-03-14T00:26:56;51708.91;;;-145.06;44.93
6530;BME280;3298;42.688;23.366;2023-03-14T00:29:23;51706.84;;;-145.06;45.17
6530;BME280;3298;42.688;23.366;2023-03-14T00:31:50;51678.19;;;-145.06;45.42
6530;BME280;3298;42.688;23.366;2023-03-14T00:34:16;51706.84;;;-145.06;45.42
6530;BME280;3298;42.688;23.366;2023-03-14T00:36:44;51735.50;;;-145.06;45.47
6530;BME280;3298;42.688;23.366;2023-03-14T00:39:12;51717.09;;;-145.06;45.45
6530;BME280;3298;42.688;23.366;2023-03-14T00:41:39;51733.47;;;-145.06;45.55
6530;BME280;3298;42.688;23.366;2023-03-14T00:44:06;51708.91;;;-145.06;45.55
6530;BME280;3298;42.688;23.366;2023-03-14T00:46:32;51706.84;;;-145.06;45.69
6530;BME280;3298;42.688;23.366;2023-03-14T00:48:59;51710.94;;;-145.06;45.95
6530;BME280;3298;42.688;23.366;2023-03-14T00:51:26;51710.94;;;-145.06;45.76
6530;BME280;3298;42.688;23.366;2023-03-14T00:53:53;51710.94;;;-145.06;46.01
6530;BME280;3298;42.688;23.366;2023-03-14T00:56:21;51702.75;;;-145.06;46.14
6530;BME280;3298;42.688;23.366;2023-03-14T00:58:48;51708.91;;;-145.06;46.10
6530;BME280;3298;42.688;23.366;2023-03-14T01:01:17;51723.22;;;-145.06;46.42
6530;BME280;3298;42.688;23.366;2023-03-14T01:03:44;51721.19;;;-145.06;46.58
6530;BME280;3298;42.688;23.366;2023-03-14T01:06:13;51710.94;;;-145.06;46.78
6530;BME280;3298;42.688;23.366;2023-03-14T01:08:40;51729.38;;;-145.06;46.83
6530;BME280;3298;42.688;23.366;2023-03-14T01:11:08;51741.66;;;-145.06;46.81
6530;BME280;3298;42.688;23.366;2023-03-14T01:13:37;51708.91;;;-145.06;46.97
6530;BME280;3298;42.688;23.366;2023-03-14T01:16:06;51725.28;;;-145.06;46.71
6530;BME280;3298;42.688;23.366;2023-03-14T01:18:34;51717.09;;;-145.06;46.44
6530;BME280;3298;42.688;23.366;2023-03-14T01:21:01;51700.72;;;-145.06;47.02
6530;BME280;3298;42.688;23.366;2023-03-14T01:23:28;51710.94;;;-145.06;47.07
6530;BME280;3298;42.688;23.366;2023-03-14T01:25:55;51753.94;;;-145.06;46.86
6530;BME280;3298;42.688;23.366;2023-03-14T01:28:22;51696.63;;;-145.06;46.60
6530;BME280;3298;42.688;23.366;2023-03-14T01:30:50;51696.63;;;-145.06;46.48
6530;BME280;3298;42.688;23.366;2023-03-14T01:33:17;51713.00;;;-145.06;46.38
6530;BME280;3298;42.688;23.366;2023-03-14T01:35:43;51678.19;;;-145.06;45.97
6530;BME280;3298;42.688;23.366;2023-03-14T01:38:10;51737.56;;;-145.06;45.94
6530;BME280;3298;42.688;23.366;2023-03-14T01:40:42;51717.09;;;-145.06;46.07
6530;BME280;3298;42.688;23.366;2023-03-14T01:43:14;51723.22;;;-145.06;45.86
6530;BME280;3298;42.688;23.366;2023-03-14T01:46:20;51729.38;;;-145.06;45.87
6530;BME280;3298;42.688;23.366;2023-03-14T01:48:55;51696.63;;;-145.06;45.70
6530;BME280;3298;42.688;23.366;2023-03-14T01:51:28;51704.81;;;-145.06;45.82
6530;BME280;3298;42.688;23.366;2023-03-14T01:54:01;51721.19;;;-145.06;45.99
6530;BME280;3298;42.688;23.366;2023-03-14T01:56:30;51717.09;;;-145.06;45.99
6530;BME280;3298;42.688;23.366;2023-03-14T01:58:58;51706.84;;;-145.06;46.36
6530;BME280;3298;42.688;23.366;2023-03-14T02:01:28;51698.66;;;-145.06;46.38
6530;BME280;3298;42.688;23.366;2023-03-14T02:03:58;51729.38;;;-145.06;46.21
6530;BME280;3298;42.688;23.366;2023-03-14T02:06:30;51725.28;;;-145.06;46.63
6530;BME280;3298;42.688;23.366;2023-03-14T02:08:59;51717.09;;;-145.06;46.25
6530;BME280;3298;42.688;23.366;2023-03-14T02:11:28;51721.19;;;-145.06;46.53
6530;BME280;3298;42.688;23.366;2023-03-14T02:13:56;51725.28;;;-145.06;46.59
6530;BME280;3298;42.688;23.366;2023-03-14T02:16:24;51715.03;;;-145.06;46.46
6530;BME280;3298;42.688;23.366;2023-03-14T02:18:52;51708.91;;;-145.06;47.07
6530;BME280;3298;42.688;23.366;2023-03-14T02:21:23;51713.00;;;-145.06;46.83
6530;BME280;3298;42.688;23.366;2023-03-14T02:24:03;51704.81;;;-145.06;46.78
6530;BME280;3298;42.688;23.366;2023-03-14T02:26:37;51708.91;;;-145.06;47.13
6530;BME280;3298;42.688;23.366;2023-03-14T02:29:06;51729.38;;;-145.06;47.10
6530;BME280;3298;42.688;23.366;2023-03-14T02:31:33;51717.09;;;-145.06;47.14
6530;BME280;3298;42.688;23.366;2023-03-14T02:34:01;51694.56;;;-145.06;47.51
6530;BME280;3298;42.688;23.366;2023-03-14T02:36:28;51725.28;;;-145.06;47.91
6530;BME280;3298;42.688;23.366;2023-03-14T02:39:03;51741.66;;;-145.06;47.75
6530;BME280;3298;42.688;23.366;2023-03-14T02:41:33;51719.13;;;-145.06;48.16
6530;BME280;3298;42.688;23.366;2023-03-14T02:43:59;51708.91;;;-145.06;48.07
6530;BME280;3298;42.688;23.366;2023-03-14T02:46:28;51708.91;;;-145.06;47.91
6530;BME280;3298;42.688;23.366;2023-03-14T02:48:57;51696.63;;;-145.06;48.45
6530;BME280;3298;42.688;23.366;2023-03-14T02:51:26;51717.09;;;-145.06;48.53
6530;BME280;3298;42.688;23.366;2023-03-14T02:53:53;51743.69;;;-145.06;48.54
6530;BME280;3298;42.688;23.366;2023-03-14T02:56:20;51737.56;;;-145.06;48.51
6530;BME280;3298;42.688;23.366;2023-03-14T02:58:47;51729.38;;;-145.06;48.38
6530;BME280;3298;42.688;23.366;2023-03-14T03:01:14;51741.66;;;-145.06;48.32
6530;BME280;3298;42.688;23.366;2023-03-14T03:03:42;51721.19;;;-145.06;48.71
6530;BME280;3298;42.688;23.366;2023-03-14T03:06:09;51727.31;;;-145.06;49.03
6530;BME280;3298;42.688;23.366;2023-03-14T03:08:35;51723.22;;;-145.06;49.07
6530;BME280;3298;42.688;23.366;2023-03-14T03:11:03;51702.75;;;-145.06;49.50
6530;BME280;3298;42.688;23.366;2023-03-14T03:13:30;51704.81;;;-145.06;49.50
6530;BME280;3298;42.688;23.366;2023-03-14T03:15:56;51702.75;;;-145.06;49.00
6530;BME280;3298;42.688;23.366;2023-03-14T03:18:23;51723.22;;;-145.06;49.20
6530;BME280;3298;42.688;23.366;2023-03-14T03:20:51;51739.59;;;-145.06;49.64
6530;BME280;3298;42.688;23.366;2023-03-14T03:23:18;51717.09;;;-145.06;49.72
6530;BME280;3298;42.688;23.366;2023-03-14T03:25:48;51721.19;;;-145.06;49.55
6530;BME280;3298;42.688;23.366;2023-03-14T03:28:16;51678.19;;;-145.06;49.74
6530;BME280;3298;42.688;23.366;2023-03-14T03:30:43;51717.09;;;-145.06;50.29
6530;BME280;3298;42.688;23.366;2023-03-14T03:33:10;51725.28;;;-145.06;50.34
6530;BME280;3298;42.688;23.366;2023-03-14T03:35:42;51713.00;;;-145.06;49.93
6530;BME280;3298;42.688;23.366;2023-03-14T03:38:11;51717.09;;;-145.06;49.98
6530;BME280;3298;42.688;23.366;2023-03-14T03:40:38;51743.69;;;-145.06;50.52
6530;BME280;3298;42.688;23.366;2023-03-14T03:43:05;51725.28;;;-145.06;50.78
6530;BME280;3298;42.688;23.366;2023-03-14T03:45:32;51708.91;;;-145.06;50.64
6530;BME280;3298;42.688;23.366;2023-03-14T03:47:58;51733.47;;;-145.06;51.09
6530;BME280;3298;42.688;23.366;2023-03-14T03:50:25;51704.81;;;-145.06;51.31
6530;BME280;3298;42.688;23.366;2023-03-14T03:52:52;51692.53;;;-145.06;51.81
6530;BME280;3298;42.688;23.366;2023-03-14T03:55:20;51708.91;;;-145.06;51.32
6530;BME280;3298;42.688;23.366;2023-03-14T03:57:47;51717.09;;;-145.06;51.55
6530;BME280;3298;42.688;23.366;2023-03-14T04:00:14;51721.19;;;-145.06;52.12
6530;BME280;3298;42.688;23.366;2023-03-14T04:02:41;51684.34;;;-145.06;51.70
6530;BME280;3298;42.688;23.366;2023-03-14T04:05:08;51696.63;;;-145.06;51.72
6530;BME280;3298;42.688;23.366;2023-03-14T04:07:35;51702.75;;;-145.06;51.80
6530;BME280;3298;42.688;23.366;2023-03-14T04:10:02;51684.34;;;-145.06;51.82
6530;BME280;3298;42.688;23.366;2023-03-14T04:12:31;51700.72;;;-145.06;51.61
6530;BME280;3298;42.688;23.366;2023-03-14T04:14:58;51733.47;;;-145.06;51.95
6530;BME280;3298;42.688;23.366;2023-03-14T04:17:24;51690.47;;;-145.06;52.38
6530;BME280;3298;42.688;23.366;2023-03-14T04:19:51;51706.84;;;-145.06;52.69
6530;BME280;3298;42.688;23.366;2023-03-14T04:22:19;51688.44;;;-145.06;52.40
6530;BME280;3298;42.688;23.366;2023-03-14T04:24:46;51700.72;;;-145.06;52.67
6530;BME280;3298;42.688;23.366;2023-03-14T04:27:12;51708.91;;;-145.06;52.57
6530;BME280;3298;42.688;23.366;2023-03-14T04:29:42;51704.81;;;-145.06;52.82
6530;BME280;3298;42.688;23.366;2023-03-14T04:32:08;51680.25;;;-145.06;52.50
6530;BME280;3298;42.688;23.366;2023-03-14T04:34:35;51702.75;;;-145.06;52.61
6530;BME280;3298;42.688;23.366;2023-03-14T04:37:02;51708.91;;;-145.06;52.90
6530;BME280;3298;42.688;23.366;2023-03-14T04:39:29;51694.56;;;-145.06;52.90
6530;BME280;3298;42.688;23.366;2023-03-14T04:41:56;51708.91;;;-145.06;52.95
6530;BME280;3298;42.688;23.366;2023-03-14T04:44:23;51710.94;;;-145.06;53.06
6530;BME280;3298;42.688;23.366;2023-03-14T04:46:51;51704.81;;;-145.06;53.47
6530;BME280;3298;42.688;23.366;2023-03-14T04:49:18;51702.75;;;-145.06;53.76
6530;BME280;3298;42.688;23.366;2023-03-14T04:51:45;51721.19;;;-145.06;53.45
6530;BME280;3298;42.688;23.366;2023-03-14T04:54:12;51708.91;;;-145.06;53.71
6530;BME280;3298;42.688;23.366;2023-03-14T04:56:39;51698.66;;;-145.06;54.04
6530;BME280;3298;42.688;23.366;2023-03-14T04:59:05;51686.38;;;-145.06;53.39
6530;BME280;3298;42.688;23.366;2023-03-14T05:01:33;51713.00;;;-145.06;53.53
6530;BME280;3298;42.688;23.366;2023-03-14T05:04:01;51704.81;;;-145.06;53.52
6530;BME280;3298;42.688;23.366;2023-03-14T05:06:28;51692.53;;;-145.06;53.84
6530;BME280;3298;42.688;23.366;2023-03-14T05:08:55;51700.72;;;-145.06;53.58
6530;BME280;3298;42.688;23.366;2023-03-14T05:11:22;51704.81;;;-145.06;53.35
6530;BME280;3298;42.688;23.366;2023-03-14T05:13:48;51688.44;;;-145.06;53.22
6530;BME280;3298;42.688;23.366;2023-03-14T05:16:15;51708.91;;;-145.06;52.62
6530;BME280;3298;42.688;23.366;2023-03-14T05:18:42;51688.44;;;-145.06;52.78
6530;BME280;3298;42.688;23.366;2023-03-14T05:21:10;51717.09;;;-145.06;52.98
6530;BME280;3298;42.688;23.366;2023-03-14T05:23:37;51700.72;;;-145.06;53.00
6530;BME280;3298;42.688;23.366;2023-03-14T05:26:04;51700.72;;;-145.06;52.82
6530;BME280;3298;42.688;23.366;2023-03-14T05:28:31;51713.00;;;-145.06;52.42
6530;BME280;3298;42.688;23.366;2023-03-14T05:30:58;51708.91;;;-145.06;52.50
6530;BME280;3298;42.688;23.366;2023-03-14T05:33:25;51696.63;;;-145.06;52.13
6530;BME280;3298;42.688;23.366;2023-03-14T05:35:51;51696.63;;;-145.06;51.78
6530;BME280;3298;42.688;23.366;2023-03-14T05:38:20;51696.63;;;-145.06;51.95
6530;BME280;3298;42.688;23.366;2023-03-14T05:40:47;51717.09;;;-145.06;52.19
6530;BME280;3298;42.688;23.366;2023-03-14T05:43:14;51704.81;;;-145.06;51.88
6530;BME280;3298;42.688;23.366;2023-03-14T05:45:42;51708.91;;;-145.06;51.31
6530;BME280;3298;42.688;23.366;2023-03-14T05:48:09;51672.06;;;-145.06;51.39
6530;BME280;3298;42.688;23.366;2023-03-14T05:50:36;51704.81;;;-145.06;50.79
6530;BME280;3298;42.688;23.366;2023-03-14T05:53:03;51721.19;;;-145.06;50.99
6530;BME280;3298;42.688;23.366;2023-03-14T05:55:31;51692.53;;;-145.06;50.99
6530;BME280;3298;42.688;23.366;2023-03-14T05:57:58;51700.72;;;-145.06;50.61
6530;BME280;3298;42.688;23.366;2023-03-14T06:00:25;51700.72;;;-145.06;51.07
6530;BME280;3298;42.688;23.366;2023-03-14T06:02:51;51708.91;;;-145.06;51.00
6530;BME280;3298;42.688;23.366;2023-03-14T06:05:18;51704.81;;;-145.06;50.94
6530;BME280;3298;42.688;23.366;2023-03-14T06:07:45;51672.06;;;-145.06;50.91
6530;BME280;3298;42.688;23.366;2023-03-14T06:10:12;51706.84;;;-145.06;50.81
6530;BME280;3298;42.688;23.366;2023-03-14T06:12:40;51704.81;;;-145.06;50.42
6530;BME280;3298;42.688;23.366;2023-03-14T06:15:07;51700.72;;;-145.06;50.22
6530;BME280;3298;42.688;23.366;2023-03-14T06:17:34;51700.72;;;-145.06;50.73
6530;BME280;3298;42.688;23.366;2023-03-14T06:20:01;51708.91;;;-145.06;50.36
6530;BME280;3298;42.688;23.366;2023-03-14T06:22:28;51721.19;;;-145.06;50.52
6530;BME280;3298;42.688;23.366;2023-03-14T06:24:54;51708.91;;;-145.06;50.72
6530;BME280;3298;42.688;23.366;2023-03-14T06:27:21;51710.94;;;-145.06;50.33
6530;BME280;3298;42.688;23.366;2023-03-14T06:29:49;51708.91;;;-145.06;50.10
6530;BME280;3298;42.688;23.366;2023-03-14T06:32:16;51694.56;;;-145.06;49.94
6530;BME280;3298;42.688;23.366;2023-03-14T06:34:43;51692.53;;;-145.06;49.92
6530;BME280;3298;42.688;23.366;2023-03-14T06:37:10;51684.34;;;-145.06;49.48
6530;BME280;3298;42.688;23.366;2023-03-14T06:39:37;51700.72;;;-145.06;49.79
6530;BME280;3298;42.688;23.366;2023-03-14T06:42:04;51721.19;;;-145.06;49.44
6530;BME280;3298;42.688;23.366;2023-03-14T06:44:31;51708.91;;;-145.06;49.17
6530;BME280;3298;42.688;23.366;2023-03-14T06:46:59;51698.66;;;-145.06;49.14
6530;BME280;3298;42.688;23.366;2023-03-14T06:49:26;51702.75;;;-145.06;49.15
6530;BME280;3298;42.688;23.366;2023-03-14T06:51:53;51690.47;;;-145.06;48.85
6530;BME280;3298;42.688;23.366;2023-03-14T06:54:19;51708.91;;;-145.06;48.85
6530;BME280;3298;42.688;23.366;2023-03-14T06:56:46;51704.81;;;-145.06;48.82
6530;BME280;3298;42.688;23.366;2023-03-14T06:59:13;51717.09;;;-145.06;48.97
6530;BME280;3298;42.688;23.366;2023-03-14T07:01:40;51708.91;;;-145.06;48.53
6530;BME280;3298;42.688;23.366;2023-03-14T07:04:08;51667.97;;;-145.06;48.14
6530;BME280;3298;42.688;23.366;2023-03-14T07:06:36;51719.13;;;-145.06;47.76
6530;BME280;3298;42.688;23.366;2023-03-14T07:09:05;51735.50;;;-145.06;47.92
6530;BME280;3298;42.688;23.366;2023-03-14T07:11:31;51717.09;;;-145.06;47.46
6530;BME280;3298;42.688;23.366;2023-03-14T07:13:58;51700.72;;;-145.06;47.06
6530;BME280;3298;42.688;23.366;2023-03-14T07:16:25;51729.38;;;-145.06;46.86
6530;BME280;3298;42.688;23.366;2023-03-14T07:18:54;51733.47;;;-145.06;46.84
6530;BME280;3298;42.688;23.366;2023-03-14T07:21:22;51729.38;;;-145.06;46.76
6530;BME280;3298;42.688;23.366;2023-03-14T07:23:49;51708.91;;;-145.06;45.84
6530;BME280;3298;42.688;23.366;2023-03-14T07:26:15;51708.91;;;-145.06;44.82
6530;BME280;3298;42.688;23.366;2023-03-14T07:28:42;51727.31;;;-145.06;45.53
6530;BME280;3298;42.688;23.366;2023-03-14T07:31:09;51700.72;;;-145.06;45.98
6530;BME280;3298;42.688;23.366;2023-03-14T07:33:36;51733.47;;;-145.06;45.47
6530;BME280;3298;42.688;23.366;2023-03-14T07:36:03;51713.00;;;-145.06;45.27
6530;BME280;3298;42.688;23.366;2023-03-14T07:38:32;51729.38;;;-145.06;45.47
6530;BME280;3298;42.688;23.366;2023-03-14T07:40:59;51704.81;;;-145.06;45.79
6530;BME280;3298;42.688;23.366;2023-03-14T07:43:26;51710.94;;;-145.06;45.58
6530;BME280;3298;42.688;23.366;2023-03-14T07:45:53;51741.66;;;-145.06;45.66
6530;BME280;3298;42.688;23.366;2023-03-14T07:48:20;51684.34;;;-145.06;45.57
6530;BME280;3298;42.688;23.366;2023-03-14T07:50:50;51710.94;;;-145.06;45.66
6530;BME280;3298;42.688;23.366;2023-03-14T07:53:18;51700.72;;;-145.06;45.76
6530;BME280;3298;42.688;23.366;2023-03-14T07:55:47;51684.34;;;-145.06;45.27
6530;BME280;3298;42.688;23.366;2023-03-14T07:58:14;51721.19;;;-145.06;45.42
6530;BME280;3298;42.688;23.366;2023-03-14T08:00:40;51717.09;;;-145.06;45.21
6530;BME280;3298;42.688;23.366;2023-03-14T08:03:07;51715.03;;;-145.06;45.42
6530;BME280;3298;42.688;23.366;2023-03-14T08:05:35;51713.00;;;-145.06;45.43
6530;BME280;3298;42.688;23.366;2023-03-14T08:08:02;51725.28;;;-145.06;44.56
6530;BME280;3298;42.688;23.366;2023-03-14T08:10:30;51706.84;;;-145.06;44.56
6530;BME280;3298;42.688;23.366;2023-03-14T08:12:59;51741.66;;;-145.06;44.07
6530;BME280;3298;42.688;23.366;2023-03-14T08:15:27;51725.28;;;-145.06;43.38
6530;BME280;3298;42.688;23.366;2023-03-14T08:17:55;51762.13;;;-145.06;43.62
6530;BME280;3298;42.688;23.366;2023-03-14T08:20:23;51696.63;;;-145.06;44.08
6530;BME280;3298;42.688;23.366;2023-03-14T08:22:51;51723.22;;;-145.06;43.30
6530;BME280;3298;42.688;23.366;2023-03-14T08:25:18;51715.03;;;-145.06;43.38
6530;BME280;3298;42.688;23.366;2023-03-14T08:27:45;51715.03;;;-145.06;43.22
6530;BME280;3298;42.688;23.366;2023-03-14T08:30:15;51680.25;;;-145.06;43.02
6530;BME280;3298;42.688;23.366;2023-03-14T08:32:42;51725.28;;;-145.06;42.71
6530;BME280;3298;42.688;23.366;2023-03-14T08:35:10;51704.81;;;-145.06;42.16
6530;BME280;3298;42.688;23.366;2023-03-14T08:37:37;51686.38;;;-145.06;41.66
6530;BME280;3298;42.688;23.366;2023-03-14T08:40:05;51723.22;;;-145.06;41.50
6530;BME280;3298;42.688;23.366;2023-03-14T08:42:32;51704.81;;;-145.06;40.63
6530;BME280;3298;42.688;23.366;2023-03-14T08:45:00;51708.91;;;-145.06;41.78
6530;BME280;3298;42.688;23.366;2023-03-14T08:47:29;51747.78;;;-145.06;41.08
6530;BME280;3298;42.688;23.366;2023-03-14T08:49:56;51725.28;;;-145.06;41.16
6530;BME280;3298;42.688;23.366;2023-03-14T08:52:23;51713.00;;;-145.06;40.98
6530;BME280;3298;42.688;23.366;2023-03-14T08:54:49;51723.22;;;-145.06;41.16
6530;BME280;3298;42.688;23.366;2023-03-14T08:57:16;51721.19;;;-145.06;41.04
6530;BME280;3298;42.688;23.366;2023-03-14T08:59:43;51770.31;;;-145.06;39.73
6530;BME280;3298;42.688;23.366;2023-03-14T09:02:11;51725.28;;;-145.06;40.28
6530;BME280;3298;42.688;23.366;2023-03-14T09:04:39;51690.47;;;-145.06;40.51
6530;BME280;3298;42.688;23.366;2023-03-14T09:07:06;51749.84;;;-145.06;39.88
6530;BME280;3298;42.688;23.366;2023-03-14T09:09:32;51713.00;;;-145.06;40.20
6530;BME280;3298;42.688;23.366;2023-03-14T09:11:59;51710.94;;;-145.06;40.38
6530;BME280;3298;42.688;23.366;2023-03-14T09:14:26;51686.38;;;-145.06;40.75
6530;BME280;3298;42.688;23.366;2023-03-14T09:16:53;51708.91;;;-145.06;40.88
6530;BME280;3298;42.688;23.366;2023-03-14T09:19:20;51729.38;;;-145.06;39.71
6530;BME280;3298;42.688;23.366;2023-03-14T09:21:48;51717.09;;;-145.06;38.42
6530;BME280;3298;42.688;23.366;2023-03-14T09:24:15;51745.75;;;-145.06;38.65
6530;BME280;3298;42.688;23.366;2023-03-14T09:26:42;51739.59;;;-145.06;39.04
6530;BME280;3298;42.688;23.366;2023-03-14T09:29:09;51688.44;;;-145.06;39.20
6530;BME280;3298;42.688;23.366;2023-03-14T09:31:36;51717.09;;;-145.06;39.00
6530;BME280;3298;42.688;23.366;2023-03-14T09:34:02;51725.28;;;-145.06;38.95
6530;BME280;3298;42.688;23.366;2023-03-14T09:36:29;51729.38;;;-145.06;38.55
6530;BME280;3298;42.688;23.366;2023-03-14T09:38:57;51723.22;;;-145.06;38.03
6530;BME280;3298;42.688;23.366;2023-03-14T09:41:27;51725.28;;;-145.06;37.84
6530;BME280;3298;42.688;23.366;2023-03-14T09:44:00;51727.31;;;-145.06;38.29
6530;BME280;3298;42.688;23.366;2023-03-14T09:46:30;51710.94;;;-145.06;38.34
6530;BME280;3298;42.688;23.366;2023-03-14T09:48:57;51725.28;;;-145.06;37.77
6530;BME280;3298;42.688;23.366;2023-03-14T09:51:24;51737.56;;;-145.06;37.88
6530;BME280;3298;42.688;23.366;2023-03-14T09:53:51;51723.22;;;-145.06;38.15
6530;BME280;3298;42.688;23.366;2023-03-14T09:56:21;51741.66;;;-145.06;38.29
6530;BME280;3298;42.688;23.366;2023-03-14T09:58:52;51743.69;;;-145.06;37.85
6530;BME280;3298;42.688;23.366;2023-03-14T10:01:25;51708.91;;;-145.06;38.22
6530;BME280;3298;42.688;23.366;2023-03-14T10:03:55;51741.66;;;-145.06;37.40
6530;BME280;3298;42.688;23.366;2023-03-14T10:06:24;51737.56;;;-145.06;37.65
6530;BME280;3298;42.688;23.366;2023-03-14T10:08:52;51733.47;;;-145.06;38.33
6530;BME280;3298;42.688;23.366;2023-03-14T10:11:22;51713.00;;;-145.06;38.11
6530;BME280;3298;42.688;23.366;2023-03-14T10:14:02;51719.13;;;-145.06;38.08
6530;BME280;3298;42.688;23.366;2023-03-14T10:16:30;51704.81;;;-145.06;38.30
6530;BME280;3298;42.688;23.366;2023-03-14T10:19:02;51735.50;;;-145.06;38.42
6530;BME280;3298;42.688;23.366;2023-03-14T10:21:31;51725.28;;;-145.06;37.56
6530;BME280;3298;42.688;23.366;2023-03-14T10:24:09;51753.94;;;-145.06;37.94
6530;BME280;3298;42.688;23.366;2023-03-14T10:26:37;51723.22;;;-145.06;38.18
6530;BME280;3298;42.688;23.366;2023-03-14T10:29:10;51725.28;;;-145.06;38.29
6530;BME280;3298;42.688;23.366;2023-03-14T10:31:47;51745.75;;;-145.06;37.92
6530;BME280;3298;42.688;23.366;2023-03-14T10:34:20;51743.69;;;-145.06;37.70
6530;BME280;3298;42.688;23.366;2023-03-14T10:36:52;51741.66;;;-145.06;37.99
6530;BME280;3298;42.688;23.366;2023-03-14T10:39:41;51741.66;;;-145.06;37.58
6530;BME280;3298;42.688;23.366;2023-03-14T10:42:19;51749.84;;;-145.06;36.73
6530;BME280;3298;42.688;23.366;2023-03-14T10:44:49;51764.16;;;-145.06;36.96
6530;BME280;3298;42.688;23.366;2023-03-14T10:47:19;51729.38;;;-145.06;36.79
6530;BME280;3298;42.688;23.366;2023-03-14T10:49:46;51725.28;;;-145.06;36.72
6530;BME280;3298;42.688;23.366;2023-03-14T10:52:18;51753.94;;;-145.06;36.56
6530;BME280;3298;42.688;23.366;2023-03-14T10:54:48;51745.75;;;-145.06;36.50
6530;BME280;3298;42.688;23.366;2023-03-14T10:57:19;51731.41;;;-145.06;36.47
6530;BME280;3298;42.688;23.366;2023-03-14T10:59:46;51731.41;;;-145.06;36.58
6530;BME280;3298;42.688;23.366;2023-03-14T11:02:26;51729.38;;;-145.06;36.78
6530;BME280;3298;42.688;23.366;2023-03-14T11:05:04;51731.41;;;-145.06;36.36
6530;BME280;3298;42.688;23.366;2023-03-14T11:07:39;51745.75;;;-145.06;36.14
6530;BME280;3298;42.688;23.366;2023-03-14T11:10:14;51751.88;;;-145.06;35.34
6530;BME280;3298;42.688;23.366;2023-03-14T11:12:55;51733.47;;;-145.06;34.69
6530;BME280;3298;42.688;23.366;2023-03-14T11:15:30;51604.53;;;-145.06;30.99
6530;BME280;3298;42.688;23.366;2023-03-14T11:18:22;51717.09;;;-145.06;26.15
6530;BME280;3298;42.688;23.366;2023-03-14T11:20:56;51686.38;;;-145.06;24.33
6530;BME280;3298;42.688;23.366;2023-03-14T11:23:31;51700.72;;;-145.06;24.52
6530;BME280;3298;42.688;23.366;2023-03-14T11:26:06;51725.28;;;-145.06;24.34
6530;BME280;3298;42.688;23.366;2023-03-14T11:28:40;51942.22;;;-145.06;23.97
6530;BME280;3298;42.688;23.366;2023-03-14T11:31:16;52007.72;;;-145.06;24.33
6530;BME280;3298;42.688;23.366;2023-03-14T11:33:48;51934.03;;;-145.06;24.09
6530;BME280;3298;42.688;23.366;2023-03-14T11:36:20;51770.31;;;-145.06;23.29
6530;BME280;3298;42.688;23.366;2023-03-14T11:38:48;51809.19;;;-145.06;22.90
6530;BME280;3298;42.688;23.366;2023-03-14T11:41:18;51811.25;;;-145.06;23.29
6530;BME280;3298;42.688;23.366;2023-03-14T11:43:49;51862.41;;;-145.06;25.96
6530;BME280;3298;42.688;23.366;2023-03-14T11:46:24;51831.72;;;-145.06;27.92
6530;BME280;3298;42.688;23.366;2023-03-14T11:48:59;51805.09;;;-145.06;29.06
6530;BME280;3298;42.688;23.366;2023-03-14T11:51:32;51755.97;;;-145.06;29.93
6530;BME280;3298;42.688;23.366;2023-03-14T11:54:07;51784.63;;;-145.06;29.98
6530;BME280;3298;42.688;23.366;2023-03-14T11:56:45;51897.19;;;-145.06;30.24
6530;BME280;3298;42.688;23.366;2023-03-14T11:59:17;51786.69;;;-145.06;30.27
6530;BME280;3298;42.688;23.366;2023-03-14T12:01:54;51794.88;;;-145.06;30.51
6530;BME280;3298;42.688;23.366;2023-03-14T12:04:33;51803.06;;;-145.06;30.50
6530;BME280;3298;42.688;23.366;2023-03-14T12:07:11;51776.44;;;-145.06;30.48
6530;BME280;3298;42.688;23.366;2023-03-14T12:09:40;51774.41;;;-145.06;30.27
6530;BME280;3298;42.688;23.366;2023-03-14T12:12:12;51805.09;;;-145.06;30.13
6530;BME280;3298;42.688;23.366;2023-03-14T12:14:50;51803.06;;;-145.06;30.48
6530;BME280;3298;42.688;23.366;2023-03-14T12:17:20;51760.06;;;-145.06;30.62
6530;BME280;3298;42.688;23.366;2023-03-14T12:19:47;51809.19;;;-145.06;30.75
6530;BME280;3298;42.688;23.366;2023-03-14T12:22:26;51796.91;;;-145.06;30.87
6530;BME280;3298;42.688;23.366;2023-03-14T12:24:57;51768.25;;;-145.06;30.67
6530;BME280;3298;42.688;23.366;2023-03-14T12:27:41;51784.63;;;-145.06;30.87
6530;BME280;3298;42.688;23.366;2023-03-14T12:30:17;51792.81;;;-145.06;30.59
6530;BME280;3298;42.688;23.366;2023-03-14T12:38:49;51790.78;;;-145.06;30.58
6530;BME280;3298;42.688;23.366;2023-03-14T12:41:21;51813.28;;;-145.06;30.70
6530;BME280;3298;42.688;23.366;2023-03-14T12:43:50;51803.06;;;-145.06;30.74
6530;BME280;3298;42.688;23.366;2023-03-14T12:46:23;51817.38;;;-145.06;30.32
6530;BME280;3298;42.688;23.366;2023-03-14T12:48:54;51815.34;;;-145.06;30.22
6530;BME280;3298;42.688;23.366;2023-03-14T12:51:29;51880.81;;;-145.06;30.62
6530;BME280;3298;42.688;23.366;2023-03-14T12:54:17;51801.00;;;-145.06;30.90
6530;BME280;3298;42.688;23.366;2023-03-14T12:56:55;51792.81;;;-145.06;31.24
6530;BME280;3298;42.688;23.366;2023-03-14T12:59:32;51798.97;;;-145.06;30.59
6530;BME280;3298;42.688;23.366;2023-03-14T13:02:13;51798.97;;;-145.06;30.77
6530;BME280;3298;42.688;23.366;2023-03-14T13:04:47;51790.78;;;-145.06;30.56
6530;BME280;3298;42.688;23.366;2023-03-14T13:07:30;51807.16;;;-145.06;30.88